Time;durP1;ratioP1;P1;durP2;ratioP2;P2;SDS_P1;SDS_P2;PMS_P1;PMS_P2;Temp;Humidity;BMP_temperature;BMP_pressure;BME280_temperature;BME280_humidity;BME280_pressure;Samples;Min_cycle;Max_cycle;Signal;HPM_P1;HPM_P2
2021/03/05 00:00:54;;;;;;;58.13;32.70;;;17.50;54.00;;;;;;5056921;28;20137;-63
2021/03/05 00:03:20;;;;;;;48.20;30.95;;;17.50;54.10;;;;;;5056853;28;20085;-63
2021/03/05 00:05:46;;;;;;;45.88;28.73;;;17.40;53.60;;;;;;5056535;28;20017;-63
2021/03/05 00:08:12;;;;;;;47.38;29.83;;;17.50;53.40;;;;;;5055848;28;20028;-63
2021/03/05 00:10:41;;;;;;;45.58;28.27;;;17.50;53.40;;;;;;5057195;28;20487;-62
2021/03/05 00:13:07;;;;;;;45.00;28.33;;;17.60;53.30;;;;;;5056602;28;20461;-63
2021/03/05 00:15:35;;;;;;;44.78;29.05;;;17.60;53.40;;;;;;5056634;28;20074;-63
2021/03/05 00:18:01;;;;;;;45.20;28.85;;;17.60;53.30;;;;;;5056900;28;20029;-63
2021/03/05 00:20:29;;;;;;;43.20;28.90;;;17.60;53.20;;;;;;5056719;28;20035;-63
2021/03/05 00:22:55;;;;;;;46.92;27.52;;;17.50;53.20;;;;;;5056343;28;20448;-63
2021/03/05 00:25:21;;;;;;;41.58;27.85;;;17.50;53.40;;;;;;5056295;28;20056;-62
2021/03/05 00:27:47;;;;;;;49.60;28.15;;;17.50;53.50;;;;;;5056222;28;20071;-63
2021/03/05 00:30:13;;;;;;;41.95;26.15;;;17.40;53.60;;;;;;5056251;28;20528;-63
2021/03/05 00:32:40;;;;;;;45.65;29.20;;;17.30;54.50;;;;;;5056448;28;20067;-62
2021/03/05 00:35:09;;;;;;;42.83;26.92;;;17.30;54.10;;;;;;5057004;28;20029;-63
2021/03/05 00:37:36;;;;;;;44.63;27.33;;;17.20;54.10;;;;;;5056525;28;20372;-63
2021/03/05 00:40:03;;;;;;;46.55;26.63;;;17.20;54.20;;;;;;5056582;28;20102;-63
2021/03/05 00:42:28;;;;;;;42.67;27.92;;;17.20;54.60;;;;;;5056129;28;20032;-63
2021/03/05 00:44:54;;;;;;;37.95;25.35;;;17.20;54.90;;;;;;5055920;28;20028;-63
2021/03/05 00:47:20;;;;;;;38.72;25.23;;;17.20;54.40;;;;;;5055991;28;20029;-63
2021/03/05 00:49:45;;;;;;;38.08;25.17;;;17.20;54.40;;;;;;5056146;28;20033;-63
2021/03/05 00:52:11;;;;;;;41.40;25.00;;;17.20;54.30;;;;;;5055797;28;20074;-63
2021/03/05 00:54:37;;;;;;;39.85;25.92;;;17.20;54.40;;;;;;5055959;28;20472;-63
2021/03/05 00:57:03;;;;;;;36.70;24.52;;;17.10;54.60;;;;;;5055571;28;20025;-63
2021/03/05 00:59:28;;;;;;;42.65;25.30;;;17.10;54.80;;;;;;5055792;28;20032;-63
2021/03/05 01:01:54;;;;;;;39.30;24.65;;;17.10;54.50;;;;;;5054336;28;20469;-63
2021/03/05 01:04:20;;;;;;;40.33;24.73;;;17.10;54.50;;;;;;5055770;28;20389;-63
2021/03/05 01:06:46;;;;;;;35.17;23.60;;;17.10;54.20;;;;;;5055975;28;20047;-63
2021/03/05 01:09:12;;;;;;;38.92;24.13;;;17.20;53.90;;;;;;5055418;28;20531;-63
2021/03/05 01:11:37;;;;;;;37.17;24.52;;;17.10;54.00;;;;;;5055654;28;20067;-63
2021/03/05 01:14:03;;;;;;;38.30;23.55;;;17.20;54.00;;;;;;5055519;28;20103;-63
2021/03/05 01:16:28;;;;;;;38.10;23.60;;;17.20;53.90;;;;;;5054009;28;20027;-63
2021/03/05 01:18:55;;;;;;;33.33;22.52;;;17.20;54.60;;;;;;5055487;28;20029;-62
2021/03/05 01:21:21;;;;;;;35.67;22.65;;;17.20;54.20;;;;;;5055568;28;20021;-63
2021/03/05 01:23:47;;;;;;;37.17;23.35;;;17.20;54.10;;;;;;5055296;28;20452;-63
2021/03/05 01:26:12;;;;;;;37.38;24.30;;;17.20;54.10;;;;;;5055111;28;20087;-63
2021/03/05 01:28:40;;;;;;;38.83;24.55;;;17.10;54.20;;;;;;5055083;28;20037;-62
2021/03/05 01:31:09;;;;;;;34.00;23.27;;;17.10;54.10;;;;;;5055245;28;20488;-62
2021/03/05 01:33:35;;;;;;;37.45;24.85;;;17.10;54.20;;;;;;5054978;28;20488;-62
2021/03/05 01:36:00;;;;;;;34.20;22.55;;;17.00;54.10;;;;;;5055273;28;20029;-63
2021/03/05 01:38:26;;;;;;;35.70;21.67;;;17.00;54.20;;;;;;5055078;28;20174;-63
2021/03/05 01:40:52;;;;;;;37.47;23.65;;;17.00;54.30;;;;;;5055054;28;20025;-63
2021/03/05 01:43:19;;;;;;;33.08;21.52;;;16.90;54.50;;;;;;5054956;28;20107;-63
2021/03/05 01:45:46;;;;;;;32.33;21.30;;;16.90;54.70;;;;;;5054827;28;20040;-63
2021/03/05 01:48:17;;;;;;;31.60;20.80;;;16.90;55.00;;;;;;5054830;28;20025;-63
2021/03/05 01:51:09;;;;;;;31.33;22.00;;;16.90;55.20;;;;;;5054612;28;20025;-62
2021/03/05 01:53:35;;;;;;;29.85;20.05;;;16.80;55.00;;;;;;5048804;28;20396;-63
2021/03/05 01:56:02;;;;;;;34.22;22.02;;;16.90;54.50;;;;;;5054573;28;20024;-63
2021/03/05 01:58:28;;;;;;;32.40;21.10;;;16.90;55.10;;;;;;5054475;28;20033;-62
2021/03/05 02:00:59;;;;;;;35.35;21.13;;;17.00;54.50;;;;;;5054669;28;20135;-63
2021/03/05 02:03:25;;;;;;;28.08;18.80;;;17.10;54.40;;;;;;5054741;28;20025;-63
2021/03/05 02:05:51;;;;;;;32.33;21.58;;;17.20;54.20;;;;;;5054559;28;20031;-63
2021/03/05 02:08:17;;;;;;;30.83;19.42;;;17.20;54.00;;;;;;5054360;28;20065;-63
2021/03/05 02:10:42;;;;;;;30.15;19.13;;;17.40;53.50;;;;;;5054727;28;20421;-63
2021/03/05 02:13:09;;;;;;;30.10;19.23;;;17.70;52.80;;;;;;5054066;28;20033;-63
2021/03/05 02:15:37;;;;;;;28.73;18.88;;;18.00;52.10;;;;;;5054247;28;20426;-63
2021/03/05 02:18:50;;;;;;;29.92;19.25;;;18.20;51.60;;;;;;5054317;28;20498;-63
2021/03/05 02:21:46;;;;;;;28.50;18.58;;;18.30;51.40;;;;;;5012471;28;20037;-63
2021/03/05 02:24:32;;;;;;;28.35;17.83;;;18.30;51.50;;;;;;5012332;28;20022;-63
2021/03/05 02:27:07;;;;;;;29.98;18.58;;;18.20;52.00;;;;;;5046046;28;20041;-63
2021/03/05 02:29:54;;;;;;;26.27;18.55;;;18.10;52.10;;;;;;5054152;28;20032;-63
2021/03/05 02:32:24;;;;;;;27.95;17.48;;;18.00;52.50;;;;;;5054129;28;20029;-63
2021/03/05 02:34:50;;;;;;;;;;;18.00;52.40;;;;;;5054485;28;20380;-63
2021/03/05 02:37:18;;;;;;;28.42;16.83;;;18.00;52.30;;;;;;5054086;28;20356;-63
2021/03/05 02:40:07;;;;;;;29.95;19.65;;;18.00;52.40;;;;;;5054229;28;20371;-63
2021/03/05 02:42:55;;;;;;;29.25;17.52;;;17.90;52.40;;;;;;5054073;28;20036;-62
2021/03/05 02:45:26;;;;;;;27.02;17.45;;;17.90;52.60;;;;;;5053943;28;20031;-63
2021/03/05 02:48:05;;;;;;;26.33;18.20;;;17.90;52.60;;;;;;5053649;28;20048;-63
2021/03/05 02:50:33;;;;;;;27.27;17.17;;;17.90;52.70;;;;;;5053628;28;20501;-63
2021/03/05 02:53:03;;;;;;;26.98;17.83;;;17.80;52.70;;;;;;5053803;28;20036;-63
2021/03/05 02:55:30;;;;;;;24.05;17.15;;;17.80;52.60;;;;;;5053886;28;20033;-63
2021/03/05 02:57:58;;;;;;;28.25;16.80;;;17.80;52.70;;;;;;5053411;28;20406;-63
2021/03/05 03:00:25;;;;;;;22.67;15.63;;;17.80;52.80;;;;;;5053420;28;20071;-63
2021/03/05 03:02:55;;;;;;;23.70;16.23;;;17.80;52.90;;;;;;5053468;28;20029;-63
2021/03/05 03:05:22;;;;;;;23.55;15.93;;;17.80;52.80;;;;;;5053768;28;20064;-63
2021/03/05 03:07:49;;;;;;;25.92;16.48;;;17.80;52.80;;;;;;5053467;28;20377;-63
2021/03/05 03:10:16;;;;;;;25.63;17.40;;;17.70;52.90;;;;;;5053308;28;20124;-63
2021/03/05 03:12:45;;;;;;;25.27;16.35;;;17.70;52.80;;;;;;5053536;28;20043;-62
2021/03/05 03:15:15;;;;;;;23.70;16.38;;;17.70;53.00;;;;;;5054142;28;20385;-63
2021/03/05 03:17:45;;;;;;;23.88;15.88;;;17.70;53.00;;;;;;5053702;28;20025;-63
2021/03/05 03:20:18;;;;;;;26.20;16.10;;;17.70;52.80;;;;;;5053408;28;20069;-63
2021/03/05 03:22:44;;;;;;;25.23;15.88;;;17.70;52.70;;;;;;5053494;28;20063;-63
2021/03/05 03:25:11;;;;;;;21.05;15.00;;;17.70;52.80;;;;;;5055883;28;20080;-62
2021/03/05 03:27:37;;;;;;;23.08;15.13;;;17.80;52.80;;;;;;5057276;28;20017;-63
2021/03/05 03:30:06;;;;;;;22.55;14.70;;;17.80;52.90;;;;;;5057454;28;20384;-63
2021/03/05 03:32:35;;;;;;;26.35;15.93;;;17.80;52.90;;;;;;5056116;28;20029;-63
2021/03/05 03:35:02;;;;;;;23.67;15.82;;;17.70;52.90;;;;;;5057382;28;20107;-63
2021/03/05 03:37:29;;;;;;;25.08;16.38;;;17.60;52.90;;;;;;5057161;28;20065;-63
2021/03/05 03:39:55;;;;;;;27.20;15.55;;;17.60;53.10;;;;;;5057038;28;20033;-62
2021/03/05 03:42:21;;;;;;;22.55;15.18;;;17.60;53.10;;;;;;5057103;28;20029;-63
2021/03/05 03:44:47;;;;;;;23.70;15.25;;;17.50;53.10;;;;;;5057099;28;20029;-62
2021/03/05 03:47:13;;;;;;;23.17;14.82;;;17.50;53.30;;;;;;5057100;28;20491;-63
2021/03/05 03:49:56;;;;;;;22.10;15.38;;;17.50;53.30;;;;;;5057082;28;20037;-63
2021/03/05 03:52:40;;;;;;;25.05;15.85;;;17.50;53.40;;;;;;5057145;28;20037;-63
2021/03/05 03:55:09;;;;;;;25.00;15.25;;;17.40;53.30;;;;;;5057148;28;20082;-63
2021/03/05 03:57:40;;;;;;;23.23;16.08;;;17.40;53.50;;;;;;5057022;28;20032;-62
2021/03/05 04:00:06;;;;;;;;;;;17.40;53.60;;;;;;5057404;28;20044;-63
2021/03/05 04:02:33;;;;;;;24.25;13.52;;;17.30;53.50;;;;;;5057064;28;20272;-63
2021/03/05 04:05:05;;;;;;;26.17;14.45;;;17.30;53.60;;;;;;5056569;28;20060;-63
2021/03/05 04:07:32;;;;;;;24.27;15.23;;;17.30;53.70;;;;;;5056773;28;20139;-63
2021/03/05 04:10:01;;;;;;;18.25;13.18;;;17.30;53.60;;;;;;5056615;28;20468;-63
2021/03/05 04:12:28;;;;;;;22.10;14.30;;;17.30;53.60;;;;;;5056710;28;20033;-63
2021/03/05 04:14:55;;;;;;;20.15;14.57;;;17.30;53.60;;;;;;5056743;28;20021;-63
2021/03/05 04:17:21;;;;;;;20.85;13.52;;;17.30;53.50;;;;;;5056444;28;20036;-63
2021/03/05 04:19:48;;;;;;;22.85;14.07;;;17.20;53.80;;;;;;5056604;28;20037;-63
2021/03/05 04:22:15;;;;;;;22.10;15.32;;;17.20;53.80;;;;;;5056617;28;20032;-63
2021/03/05 04:24:41;;;;;;;19.27;13.90;;;17.20;53.50;;;;;;5056536;28;20048;-62
2021/03/05 04:27:08;;;;;;;20.13;13.40;;;17.30;53.50;;;;;;5056458;28;20025;-63
2021/03/05 04:29:33;;;;;;;23.58;14.70;;;17.30;53.50;;;;;;5056372;28;20025;-62
2021/03/05 04:31:59;;;;;;;22.30;15.95;;;17.30;53.30;;;;;;5056285;28;20086;-63
2021/03/05 04:34:25;;;;;;;21.17;14.70;;;17.30;53.50;;;;;;5056117;28;20108;-63
2021/03/05 04:36:50;;;;;;;21.52;13.73;;;17.30;53.40;;;;;;5056389;28;20484;-63
2021/03/05 04:39:16;;;;;;;21.75;14.88;;;17.30;53.30;;;;;;5056267;28;20032;-63
2021/03/05 04:41:42;;;;;;;21.15;13.55;;;17.30;53.00;;;;;;5056163;28;20021;-63
2021/03/05 04:44:08;;;;;;;22.70;14.07;;;17.30;53.30;;;;;;5056176;28;20025;-63
2021/03/05 04:46:33;;;;;;;24.23;14.57;;;17.30;53.30;;;;;;5055981;28;20104;-63
2021/03/05 04:48:59;;;;;;;21.60;14.70;;;17.30;53.40;;;;;;5055785;28;20111;-63
2021/03/05 04:51:24;;;;;;;20.88;14.73;;;17.30;53.30;;;;;;5055894;28;20033;-63
2021/03/05 04:53:50;;;;;;;20.90;13.25;;;17.20;53.30;;;;;;5055366;28;20074;-63
2021/03/05 04:56:16;;;;;;;23.05;13.75;;;17.20;53.40;;;;;;5055920;28;20025;-63
2021/03/05 04:58:41;;;;;;;24.30;12.77;;;17.20;53.50;;;;;;5055662;28;20028;-63
2021/03/05 05:01:07;;;;;;;20.52;14.35;;;17.10;53.70;;;;;;5055571;28;20431;-63
2021/03/05 05:03:32;;;;;;;22.80;14.52;;;17.10;53.80;;;;;;5056069;28;20068;-63
2021/03/05 05:05:58;;;;;;;21.25;13.65;;;17.10;53.80;;;;;;5055669;28;20051;-63
2021/03/05 05:08:24;;;;;;;20.70;13.05;;;17.20;53.80;;;;;;5055479;28;20132;-63
2021/03/05 05:10:49;;;;;;;19.38;13.60;;;17.30;53.80;;;;;;5055383;28;20029;-63
2021/03/05 05:13:15;;;;;;;20.73;12.75;;;17.30;53.60;;;;;;5055583;28;20021;-63
2021/03/05 05:15:41;;;;;;;19.42;12.85;;;17.40;53.50;;;;;;5055478;28;20056;-63
2021/03/05 05:18:06;;;;;;;21.30;12.90;;;17.50;52.90;;;;;;5055910;28;20028;-63
2021/03/05 05:20:32;;;;;;;18.70;12.70;;;17.70;52.60;;;;;;5055470;28;20363;-63
2021/03/05 05:22:58;;;;;;;19.80;13.88;;;17.80;52.50;;;;;;5055860;28;20049;-63
2021/03/05 05:25:24;;;;;;;17.88;12.43;;;17.80;52.20;;;;;;5055580;28;20473;-63
2021/03/05 05:27:50;;;;;;;19.13;13.55;;;18.00;51.80;;;;;;5055292;28;20028;-63
2021/03/05 05:30:15;;;;;;;19.13;13.15;;;18.20;51.30;;;;;;5054904;28;20029;-63
2021/03/05 05:32:41;;;;;;;17.85;12.15;;;18.30;50.90;;;;;;5054972;28;20456;-63
2021/03/05 05:35:07;;;;;;;17.75;12.48;;;18.40;50.80;;;;;;5054941;28;20025;-63
2021/03/05 05:37:33;;;;;;;18.30;11.95;;;18.40;50.80;;;;;;5055079;28;20535;-63
2021/03/05 05:39:59;;;;;;;18.83;12.27;;;18.20;51.50;;;;;;5055114;28;20029;-63
2021/03/05 05:42:24;;;;;;;21.33;13.10;;;18.10;51.60;;;;;;5054865;28;20025;-63
2021/03/05 05:44:50;;;;;;;17.95;12.02;;;18.10;51.70;;;;;;5054665;28;20444;-63
2021/03/05 05:47:16;;;;;;;19.83;11.93;;;18.10;51.70;;;;;;5054397;28;20472;-63
2021/03/05 05:49:44;;;;;;;19.00;13.05;;;18.00;51.80;;;;;;5055135;28;20037;-63
2021/03/05 05:52:18;;;;;;;17.77;12.40;;;18.00;51.80;;;;;;5055057;28;20135;-63
2021/03/05 05:54:46;;;;;;;16.75;12.25;;;18.00;51.90;;;;;;5054947;28;20029;-63
2021/03/05 05:57:12;;;;;;;17.05;12.52;;;17.90;52.00;;;;;;5054548;28;20032;-63
2021/03/05 05:59:39;;;;;;;20.42;12.85;;;17.90;51.90;;;;;;5054762;28;20036;-63
2021/03/05 06:02:07;;;;;;;17.17;11.45;;;17.90;52.00;;;;;;5054966;28;20025;-63
2021/03/05 06:04:32;;;;;;;16.08;10.63;;;17.90;52.10;;;;;;5054753;28;20100;-63
2021/03/05 06:07:01;;;;;;;17.30;12.07;;;17.80;52.10;;;;;;5054518;28;20029;-63
2021/03/05 06:09:27;;;;;;;19.58;12.85;;;17.80;52.20;;;;;;5054449;28;20393;-63
2021/03/05 06:11:52;;;;;;;16.27;10.95;;;17.80;52.20;;;;;;5054239;28;20029;-62
2021/03/05 06:14:19;;;;;;;17.88;12.02;;;17.70;52.30;;;;;;5054714;28;20457;-62
2021/03/05 06:17:12;;;;;;;18.95;12.00;;;17.70;52.90;;;;;;5054154;28;20457;-62
2021/03/05 06:19:38;;;;;;;22.85;12.70;;;17.80;53.50;;;;;;5052468;28;20040;-60
2021/03/05 06:22:18;;;;;;;25.85;12.82;;;17.80;54.30;;;;;;5054221;28;20068;-60
2021/03/05 06:24:44;;;;;;;21.92;12.93;;;17.80;53.20;;;;;;5054515;28;20032;-64
2021/03/05 06:27:10;;;;;;;22.65;13.60;;;17.80;53.00;;;;;;5054234;28;20036;-60
2021/03/05 06:29:49;;;;;;;29.10;12.52;;;17.70;53.00;;;;;;5054386;28;20028;-59
2021/03/05 06:32:17;;;;;;;25.65;13.57;;;17.70;53.10;;;;;;5054155;28;20112;-60
2021/03/05 06:34:47;;;;;;;21.13;12.95;;;17.70;53.10;;;;;;5053707;28;20082;-60
2021/03/05 06:37:13;;;;;;;25.80;13.43;;;17.70;52.90;;;;;;5053996;28;20053;-59
2021/03/05 06:39:39;;;;;;;22.27;13.00;;;17.80;53.20;;;;;;5054106;28;20037;-59
2021/03/05 06:42:09;;;;;;;23.88;13.43;;;17.70;52.90;;;;;;5053976;28;20017;-59
2021/03/05 06:44:36;;;;;;;;;;;17.70;53.00;;;;;;5054581;28;20090;-59
2021/03/05 06:47:14;;;;;;;24.42;12.32;;;17.70;52.90;;;;;;5053818;28;19908;-59
2021/03/05 06:49:42;;;;;;;19.27;12.20;;;17.70;52.90;;;;;;5053538;28;20029;-59
2021/03/05 06:52:08;;;;;;;20.92;11.65;;;17.60;53.50;;;;;;5054176;28;20025;-58
2021/03/05 06:54:36;;;;;;;23.63;13.82;;;17.60;52.90;;;;;;5053702;28;20033;-60
2021/03/05 06:57:03;;;;;;;34.42;15.00;;;17.60;52.60;;;;;;5053558;28;20040;-61
2021/03/05 06:59:45;;;;;;;25.85;14.88;;;17.50;52.10;;;;;;5052401;28;20033;-61
2021/03/05 07:02:15;;;;;;;27.33;14.80;;;17.50;51.90;;;;;;5054112;28;20033;-64
2021/03/05 07:04:49;;;;;;;33.90;17.08;;;17.50;52.10;;;;;;5053556;28;20115;-60
2021/03/05 07:07:16;;;;;;;106.03;62.30;;;17.50;51.60;;;;;;5052284;28;20025;-63
2021/03/05 07:09:43;;;;;;;138.50;85.03;;;17.50;50.90;;;;;;5053154;28;20036;-60
2021/03/05 07:12:17;;;;;;;128.07;75.60;;;17.40;49.40;;;;;;5053497;28;20033;-62
2021/03/05 07:14:47;;;;;;;149.20;86.00;;;17.30;48.70;;;;;;5053712;28;20028;-61
2021/03/05 07:17:15;;;;;;;79.10;50.40;;;17.30;48.10;;;;;;5053502;28;20419;-68
2021/03/05 07:19:40;;;;;;;102.72;67.40;;;17.10;45.20;;;;;;5053201;28;20040;-68
2021/03/05 07:22:09;;;;;;;94.82;58.38;;;16.80;48.10;;;;;;5053279;28;20025;-66
2021/03/05 07:24:39;;;;;;;91.13;54.50;;;16.70;47.50;;;;;;5053258;28;20021;-64
2021/03/05 07:27:06;;;;;;;74.90;43.47;;;16.70;47.80;;;;;;5053892;28;20082;-65
2021/03/05 07:29:37;;;;;;;60.80;37.47;;;16.70;46.60;;;;;;5053338;28;20033;-65
2021/03/05 07:32:09;;;;;;;;;;;16.80;46.50;;;;;;5054132;28;20377;-67
2021/03/05 07:34:56;;;;;;;58.50;37.97;;;17.00;46.30;;;;;;5053706;28;20304;-68
2021/03/05 07:37:29;;;;;;;57.72;35.70;;;17.20;46.80;;;;;;5053821;28;20112;-68
2021/03/05 07:40:00;;;;;;;64.10;34.58;;;17.40;46.70;;;;;;5053262;28;20037;-67
2021/03/05 07:42:27;;;;;;;62.10;33.72;;;17.60;47.10;;;;;;5053819;28;20025;-63
2021/03/05 07:44:52;;;;;;;76.60;32.95;;;17.50;48.00;;;;;;5053267;28;20544;-61
2021/03/05 07:47:19;;;;;;;63.88;31.73;;;17.40;47.50;;;;;;5065028;28;20111;-62
2021/03/05 07:49:45;;;;;;;64.60;33.50;;;17.40;47.90;;;;;;5073459;28;20045;-63
2021/03/05 07:52:12;;;;;;;57.67;30.77;;;17.40;47.50;;;;;;5073499;28;20106;-60
2021/03/05 07:54:40;;;;;;;124.15;70.75;;;17.50;46.70;;;;;;5073613;28;20025;-60
2021/03/05 07:57:29;;;;;;;130.90;78.40;;;17.60;46.60;;;;;;5073023;28;20078;-60
2021/03/05 07:59:56;;;;;;;144.05;88.22;;;17.70;46.20;;;;;;5066430;28;20041;-61
2021/03/05 08:02:23;;;;;;;125.32;72.68;;;17.80;46.10;;;;;;5073368;28;20353;-60
2021/03/05 08:07:18;;;;;;;82.70;54.35;;;18.00;45.60;;;;;;5073024;28;20456;-60
2021/03/05 08:09:45;;;;;;;78.05;49.33;;;18.20;45.80;;;;;;5072870;28;20033;-60
2021/03/05 08:12:30;;;;;;;68.82;43.83;;;18.30;45.60;;;;;;5076322;28;20040;-62
2021/03/05 08:15:08;;;;;;;77.93;45.33;;;18.30;45.50;;;;;;5076506;28;20078;-60
2021/03/05 08:17:50;;;;;;;64.90;41.33;;;18.40;45.50;;;;;;5076468;28;20041;-60
2021/03/05 08:20:18;;;;;;;59.53;40.40;;;18.40;45.40;;;;;;5076526;28;20036;-60
2021/03/05 08:23:02;;;;;;;59.22;39.25;;;18.40;45.50;;;;;;5076512;28;20031;-61
2021/03/05 08:25:38;;;;;;;59.88;38.22;;;18.40;45.50;;;;;;5075362;28;20395;-60
2021/03/05 08:28:20;;;;;;;53.88;36.53;;;18.40;45.60;;;;;;5076417;28;20477;-60
2021/03/05 08:30:46;;;;;;;57.55;34.35;;;18.40;45.60;;;;;;5076358;28;20124;-60
2021/03/05 08:33:29;;;;;;;56.70;36.78;;;18.40;45.70;;;;;;5076157;28;20108;-61
2021/03/05 08:35:54;;;;;;;49.15;33.25;;;18.40;45.80;;;;;;5076320;28;20031;-62
2021/03/05 08:38:30;;;;;;;57.67;32.97;;;18.30;45.70;;;;;;5076683;28;20369;-61
2021/03/05 08:41:02;;;;;;;49.15;30.38;;;18.30;45.80;;;;;;5076394;28;20027;-60
2021/03/05 08:43:28;;;;;;;47.40;30.88;;;18.20;45.30;;;;;;5075977;28;20021;-63
2021/03/05 08:45:56;;;;;;;46.80;31.10;;;18.30;45.20;;;;;;5075942;28;20082;-62
2021/03/05 08:48:42;;;;;;;46.63;31.38;;;18.40;45.00;;;;;;5075833;28;20372;-64
2021/03/05 08:51:17;;;;;;;47.17;28.10;;;18.40;44.70;;;;;;5075252;28;20368;-63
2021/03/05 08:53:50;;;;;;;47.58;30.08;;;18.40;44.50;;;;;;5076227;28;20365;-62
2021/03/05 08:56:26;;;;;;;50.33;29.65;;;18.30;45.40;;;;;;5075817;28;20021;-63
2021/03/05 08:59:03;;;;;;;46.03;27.27;;;18.20;45.20;;;;;;5076088;28;20032;-63
2021/03/05 09:01:35;;;;;;;44.33;28.00;;;18.20;45.50;;;;;;5075887;28;20029;-63
2021/03/05 09:04:12;;;;;;;44.95;28.27;;;18.10;45.30;;;;;;5076085;28;20089;-65
2021/03/05 09:06:50;;;;;;;44.53;26.95;;;18.10;45.20;;;;;;5075938;28;20032;-65
2021/03/05 09:09:17;;;;;;;46.10;28.35;;;18.00;45.40;;;;;;5075403;28;20071;-63
2021/03/05 09:11:42;;;;;;;45.90;27.00;;;18.00;45.30;;;;;;5075908;28;20036;-61
2021/03/05 09:14:25;;;;;;;43.80;28.15;;;18.00;45.20;;;;;;5075508;28;20037;-61
2021/03/05 09:17:01;;;;;;;40.45;26.98;;;18.00;45.50;;;;;;5075391;28;20107;-63
2021/03/05 09:19:43;;;;;;;39.58;26.50;;;18.00;45.60;;;;;;5075577;28;20036;-61
2021/03/05 09:22:12;;;;;;;43.88;27.90;;;17.90;45.80;;;;;;5074483;28;20025;-62
2021/03/05 09:24:56;;;;;;;43.00;27.33;;;17.90;45.90;;;;;;5075370;28;20082;-62
2021/03/05 09:27:26;;;;;;;48.80;25.95;;;17.90;46.10;;;;;;5074894;28;20488;-59
2021/03/05 09:29:53;;;;;;;73.22;44.83;;;17.90;45.90;;;;;;5075052;28;20035;-59
2021/03/05 09:32:19;;;;;;;83.97;55.80;;;17.90;45.80;;;;;;5074929;28;20443;-59
2021/03/05 09:34:58;;;;;;;97.15;62.40;;;17.80;45.80;;;;;;5075135;28;20031;-59
2021/03/05 09:37:27;;;;;;;136.93;84.40;;;17.80;46.00;;;;;;5075213;28;20025;-59
2021/03/05 09:39:54;;;;;;;117.13;73.03;;;17.80;46.60;;;;;;5074739;28;20081;-58
2021/03/05 09:42:45;;;;;;;98.03;61.63;;;17.80;47.00;;;;;;5074852;28;20025;-58
2021/03/05 09:45:11;;;;;;;107.65;69.30;;;17.80;46.40;;;;;;5073452;28;20418;-58
2021/03/05 09:47:47;;;;;;;118.65;74.00;;;17.80;46.20;;;;;;5074541;28;20043;-58
2021/03/05 09:50:18;;;;;;;129.77;79.65;;;17.90;46.10;;;;;;5074693;28;20078;-58
2021/03/05 09:52:44;;;;;;;;;;;17.90;46.30;;;;;;5075192;28;20534;-58
2021/03/05 09:55:10;;;;;;;136.10;81.88;;;17.90;46.20;;;;;;5074769;28;19908;-59
2021/03/05 09:57:38;;;;;;;144.20;85.10;;;17.90;45.90;;;;;;5074426;28;20395;-59
2021/03/05 10:00:05;;;;;;;117.15;71.50;;;17.90;46.40;;;;;;5074668;28;20036;-59
2021/03/05 10:02:36;;;;;;;112.03;71.15;;;17.90;46.00;;;;;;5074296;28;20055;-59
2021/03/05 10:05:01;;;;;;;116.60;71.60;;;17.90;46.20;;;;;;5074965;28;20079;-59
2021/03/05 10:07:27;;;;;;;87.40;55.53;;;17.90;46.10;;;;;;5074477;28;20400;-59
2021/03/05 10:10:07;;;;;;;77.00;47.90;;;17.80;46.10;;;;;;5072909;28;20589;-60
2021/03/05 10:12:32;;;;;;;61.22;38.88;;;17.80;45.50;;;;;;5072594;28;20380;-61
2021/03/05 10:15:05;;;;;;;59.45;36.88;;;17.80;44.90;;;;;;5074225;28;20028;-59
2021/03/05 10:17:38;;;;;;;66.50;36.80;;;17.70;45.00;;;;;;5074073;28;20033;-59
2021/03/05 10:20:05;;;;;;;68.82;36.72;;;17.80;45.50;;;;;;5072199;28;20119;-59
2021/03/05 10:22:32;;;;;;;64.70;35.80;;;17.80;45.80;;;;;;5071889;28;20028;-59
2021/03/05 10:24:58;;;;;;;62.50;35.58;;;18.00;45.90;;;;;;5071773;28;20063;-59
2021/03/05 10:27:23;;;;;;;61.35;35.35;;;18.10;46.00;;;;;;5071759;28;20479;-59
2021/03/05 10:29:57;;;;;;;61.42;34.72;;;18.20;45.70;;;;;;5072623;28;20028;-60
2021/03/05 10:32:25;;;;;;;58.85;34.58;;;18.30;45.40;;;;;;5073046;28;20086;-59
2021/03/05 10:35:06;;;;;;;58.95;34.08;;;18.40;45.80;;;;;;5073563;28;20480;-58
2021/03/05 10:37:32;;;;;;;58.90;34.60;;;18.40;45.50;;;;;;5074176;28;20028;-58
2021/03/05 10:39:59;;;;;;;56.40;35.50;;;18.50;45.50;;;;;;5073890;28;20521;-59
2021/03/05 10:42:27;;;;;;;55.08;33.97;;;18.50;45.70;;;;;;5073985;28;20093;-59
2021/03/05 10:44:53;;;;;;;58.30;33.45;;;18.50;45.70;;;;;;5073794;28;20086;-58
2021/03/05 10:47:20;;;;;;;57.72;33.85;;;18.50;45.70;;;;;;5074003;28;20032;-58
2021/03/05 10:49:47;;;;;;;48.25;30.88;;;18.40;45.70;;;;;;5073763;28;20461;-58
2021/03/05 10:52:15;;;;;;;53.05;33.33;;;18.50;45.70;;;;;;5073741;28;20047;-59
2021/03/05 10:54:42;;;;;;;49.05;32.63;;;18.70;45.40;;;;;;5073714;28;20020;-58
2021/03/05 10:57:09;;;;;;;48.40;31.70;;;18.80;45.20;;;;;;5074036;28;20389;-59
2021/03/05 10:59:34;;;;;;;49.20;30.95;;;18.90;45.10;;;;;;5074079;28;20157;-58
2021/03/05 11:02:00;;;;;;;49.55;30.88;;;18.90;45.00;;;;;;5073968;28;20491;-58
2021/03/05 11:04:26;;;;;;;43.03;29.80;;;18.90;45.20;;;;;;5073785;28;20032;-58
2021/03/05 11:06:53;;;;;;;46.85;29.98;;;18.80;45.80;;;;;;5073705;28;20388;-58
2021/03/05 11:09:24;;;;;;;47.35;29.95;;;18.70;46.00;;;;;;5073624;28;20040;-59
2021/03/05 11:11:50;;;;;;;49.85;29.08;;;18.60;46.10;;;;;;5073474;28;20127;-59
2021/03/05 11:14:16;;;;;;;44.97;28.70;;;18.50;46.20;;;;;;5073683;28;20060;-59
2021/03/05 11:16:42;;;;;;;48.33;29.30;;;18.50;46.40;;;;;;5073662;28;20029;-59
2021/03/05 11:19:08;;;;;;;42.65;28.60;;;18.50;46.40;;;;;;5073896;28;20091;-58
2021/03/05 11:21:34;;;;;;;45.65;29.08;;;18.50;46.60;;;;;;5073313;28;20437;-59
2021/03/05 11:24:00;;;;;;;46.15;28.88;;;18.40;46.60;;;;;;5073879;28;20109;-58
2021/03/05 11:26:26;;;;;;;46.65;28.10;;;18.40;46.90;;;;;;5073695;28;20106;-59
2021/03/05 11:28:52;;;;;;;42.13;27.67;;;18.40;47.00;;;;;;5073450;28;20035;-58
2021/03/05 11:31:19;;;;;;;41.25;26.60;;;18.30;47.00;;;;;;5073467;28;20107;-58
2021/03/05 11:33:45;;;;;;;40.35;25.95;;;18.30;47.10;;;;;;5073237;28;20032;-58
2021/03/05 11:36:11;;;;;;;38.13;25.10;;;18.30;47.20;;;;;;5073061;28;20483;-58
2021/03/05 11:38:41;;;;;;;42.55;26.98;;;18.30;47.40;;;;;;5073842;28;20028;-58
2021/03/05 11:41:07;;;;;;;41.20;27.40;;;18.30;47.40;;;;;;5073872;28;20033;-58
2021/03/05 11:43:34;;;;;;;37.97;25.58;;;18.20;47.40;;;;;;5074048;28;20271;-59
2021/03/05 11:46:00;;;;;;;38.35;25.45;;;18.20;47.60;;;;;;5075285;28;20139;-58
2021/03/05 11:48:26;;;;;;;37.25;24.23;;;18.20;47.50;;;;;;5077136;28;20108;-58
2021/03/05 11:50:52;;;;;;;42.35;24.27;;;18.20;47.60;;;;;;5077097;28;20028;-59
2021/03/05 11:53:17;;;;;;;35.17;23.70;;;18.20;47.70;;;;;;5077183;28;20028;-58
2021/03/05 11:55:43;;;;;;;39.33;25.20;;;18.20;47.80;;;;;;5077406;28;20020;-58
2021/03/05 11:58:09;;;;;;;38.53;25.58;;;18.20;47.70;;;;;;5076947;28;20039;-58
2021/03/05 12:00:35;;;;;;;39.00;23.70;;;18.30;47.80;;;;;;5077221;28;20468;-58
2021/03/05 12:03:00;;;;;;;36.28;22.83;;;18.20;47.70;;;;;;5076758;28;20032;-58
2021/03/05 12:05:26;;;;;;;34.22;22.27;;;18.20;47.70;;;;;;5076803;28;20025;-59
2021/03/05 12:07:52;;;;;;;35.70;22.85;;;18.20;47.80;;;;;;5076627;28;20028;-58
2021/03/05 12:10:18;;;;;;;36.20;24.17;;;18.20;48.50;;;;;;5076737;28;20430;-58
2021/03/05 12:12:43;;;;;;;35.58;23.00;;;18.20;47.90;;;;;;5076824;28;20461;-58
2021/03/05 12:15:09;;;;;;;29.05;21.67;;;18.20;48.00;;;;;;5076680;28;20422;-59
2021/03/05 12:17:35;;;;;;;36.15;23.40;;;18.10;48.10;;;;;;5076589;28;20032;-58
2021/03/05 12:20:01;;;;;;;32.35;22.67;;;18.10;48.20;;;;;;5076541;28;20037;-59
2021/03/05 12:22:27;;;;;;;33.30;22.23;;;18.00;48.20;;;;;;5076578;28;20380;-59
2021/03/05 12:24:52;;;;;;;32.40;21.52;;;18.00;49.00;;;;;;5076474;28;20047;-59
2021/03/05 12:27:18;;;;;;;39.20;23.63;;;18.00;48.50;;;;;;5076274;28;20056;-59
2021/03/05 12:29:44;;;;;;;36.90;23.17;;;17.90;48.50;;;;;;5076307;28;20025;-58
2021/03/05 12:32:09;;;;;;;31.40;21.00;;;17.90;48.70;;;;;;5076534;28;20055;-59
2021/03/05 12:34:35;;;;;;;31.33;20.17;;;17.90;48.60;;;;;;5076556;28;20031;-59
2021/03/05 12:37:01;;;;;;;28.35;19.55;;;17.80;48.60;;;;;;5076276;28;20388;-59
2021/03/05 12:39:27;;;;;;;31.10;21.30;;;17.80;48.60;;;;;;5076371;28;20032;-58